Terminal Aerodrome Forecast
Issued by NWS

Home | Current Version | Previous Version | Text Only | Print | Product List | Glossary On
Versions: 1 2 3 4 5 6 7 8 9 10 11 12 13 14 15 16
000
FTUS43 KAPX 261700
TAFMBL
TAF
KMBL 261739Z 2618/2718 22008KT P6SM SCT029
      TEMPO 2618/2620 6SM -SHRA BKN028 OVC060
     FM270100 VRB03KT P6SM BKN050
     FM270700 10003KT 3SM BR SCT050
      AMD LTD TO CLD VIS AND WIND=

USA.gov is the U.S. government's official web portal to all federal, state and local government web resources and services.